Time;durP1;ratioP1;P1;durP2;ratioP2;P2;SDS_P1;SDS_P2;PMS_P1;PMS_P2;Temp;Humidity;BMP_temperature;BMP_pressure;BME280_temperature;BME280_humidity;BME280_pressure;Samples;Min_cycle;Max_cycle;Signal;HPM_P1;HPM_P2
2023/10/24 00:01:09;0.00;0.00;0.62;0.00;0.00;0.62;2.67;1.60;;;24.60;28.90;;;;;;2273082;61;20397;-58
2023/10/24 00:03:55;0.00;0.00;0.62;0.00;0.00;0.62;2.23;1.93;;;24.60;28.90;;;;;;2273119;61;20382;-61
2023/10/24 00:06:40;0.00;0.00;0.62;0.00;0.00;0.62;3.33;2.50;;;24.60;28.90;;;;;;2273130;61;20362;-58
2023/10/24 00:09:25;0.00;0.00;0.62;0.00;0.00;0.62;3.20;2.27;;;24.60;28.90;;;;;;2272926;61;20397;-60
2023/10/24 00:12:11;0.00;0.00;0.62;0.00;0.00;0.62;2.30;1.83;;;24.60;28.90;;;;;;2272735;61;20386;-60
2023/10/24 00:14:55;0.00;0.00;0.62;0.00;0.00;0.62;2.40;1.80;;;24.60;28.90;;;;;;2272611;61;20398;-59
2023/10/24 00:17:40;0.00;0.00;0.62;0.00;0.00;0.62;2.37;1.80;;;24.60;28.90;;;;;;2272576;61;20404;-60
2023/10/24 00:20:26;0.00;0.00;0.62;0.00;0.00;0.62;2.27;1.63;;;24.60;28.90;;;;;;2272124;61;20404;-58
2023/10/24 00:23:10;0.00;0.00;0.62;0.00;0.00;0.62;2.87;2.20;;;24.50;28.90;;;;;;2272686;61;20385;-60
2023/10/24 00:25:55;0.00;0.00;0.62;0.00;0.00;0.62;2.50;1.60;;;24.60;28.90;;;;;;2272398;61;20366;-60
2023/10/24 00:28:39;0.00;0.00;0.62;0.00;0.00;0.62;2.57;1.70;;;24.60;28.90;;;;;;2272328;61;20353;-60
2023/10/24 00:31:24;0.00;0.00;0.62;0.00;0.00;0.62;2.30;1.80;;;24.50;28.90;;;;;;2272058;61;20398;-59
2023/10/24 00:34:12;0.00;0.00;0.62;0.00;0.00;0.62;2.50;1.60;;;24.50;28.90;;;;;;2272396;61;20844;-57
2023/10/24 00:36:58;0.00;0.00;0.62;0.00;0.00;0.62;2.40;1.90;;;24.50;28.90;;;;;;2272638;61;20385;-64
2023/10/24 00:39:42;0.00;0.00;0.62;0.00;0.00;0.62;2.53;1.60;;;24.50;28.90;;;;;;2272316;61;20405;-59
2023/10/24 00:42:27;0.00;0.00;0.62;0.00;0.00;0.62;2.53;1.80;;;24.50;28.90;;;;;;2272357;60;20424;-61
2023/10/24 00:45:11;0.00;0.00;0.62;0.00;0.00;0.62;2.57;1.93;;;24.50;28.90;;;;;;2272942;61;21239;-60
2023/10/24 00:47:56;0.00;0.00;0.62;0.00;0.00;0.62;2.20;1.50;;;24.50;28.90;;;;;;2272715;61;20420;-60
2023/10/24 00:50:42;0.00;0.00;0.62;0.00;0.00;0.62;2.10;1.60;;;24.50;28.90;;;;;;2272719;61;20419;-60
2023/10/24 00:53:28;0.00;0.00;0.62;0.00;0.00;0.62;2.90;1.87;;;24.50;28.90;;;;;;2273240;61;20398;-58
2023/10/24 00:56:13;0.00;0.00;0.62;0.00;0.00;0.62;2.20;1.70;;;24.50;28.90;;;;;;2273106;61;20427;-58
2023/10/24 00:58:59;0.00;0.00;0.62;0.00;0.00;0.62;2.03;1.50;;;24.50;28.90;;;;;;2271980;61;20412;-61
2023/10/24 01:01:44;0.00;0.00;0.62;0.00;0.00;0.62;1.87;1.40;;;24.50;28.90;;;;;;2272928;60;20361;-61
2023/10/24 01:04:28;0.00;0.00;0.62;0.00;0.00;0.62;2.17;1.50;;;24.50;28.90;;;;;;2272996;60;20427;-61
2023/10/24 01:07:13;0.00;0.00;0.62;0.00;0.00;0.62;2.47;1.60;;;24.50;28.90;;;;;;2289077;57;20354;-58
2023/10/24 01:09:59;0.00;0.00;0.62;0.00;0.00;0.62;1.97;1.37;;;24.50;28.90;;;;;;2272194;60;20887;-58
2023/10/24 01:12:43;0.00;0.00;0.62;0.00;0.00;0.62;2.10;1.47;;;24.50;28.90;;;;;;2273084;60;20389;-57
2023/10/24 01:15:28;0.00;0.00;0.62;0.00;0.00;0.62;2.30;1.60;;;24.50;28.90;;;;;;2272780;60;20342;-53
2023/10/24 01:18:12;0.00;0.00;0.62;0.00;0.00;0.62;2.13;1.60;;;24.50;28.90;;;;;;2272638;60;20448;-57
2023/10/24 01:20:57;0.00;0.00;0.62;0.00;0.00;0.62;2.23;1.50;;;24.50;28.90;;;;;;2273319;60;20415;-59
2023/10/24 01:23:43;0.00;0.00;0.62;0.00;0.00;0.62;2.30;1.73;;;24.50;28.90;;;;;;2273114;60;20859;-60
2023/10/24 01:26:28;0.00;0.00;0.62;0.00;0.00;0.62;2.13;1.60;;;24.50;28.90;;;;;;2272782;60;20366;-60
2023/10/24 01:29:13;0.00;0.00;0.62;0.00;0.00;0.62;2.27;1.30;;;24.50;28.90;;;;;;2272661;60;20362;-57
2023/10/24 01:31:57;0.00;0.00;0.62;0.00;0.00;0.62;2.10;1.40;;;24.50;28.90;;;;;;2272459;60;20897;-60
2023/10/24 01:34:42;0.00;0.00;0.62;0.00;0.00;0.62;2.10;1.50;;;24.40;28.90;;;;;;2272552;60;20359;-60
2023/10/24 01:37:27;0.00;0.00;0.62;0.00;0.00;0.62;2.27;1.77;;;24.40;28.90;;;;;;2273151;60;20394;-60
2023/10/24 01:40:13;0.00;0.00;0.62;0.00;0.00;0.62;1.83;1.10;;;24.40;28.90;;;;;;2272142;60;20366;-60
2023/10/24 01:42:57;0.00;0.00;0.62;0.00;0.00;0.62;1.83;1.37;;;24.50;28.90;;;;;;2345057;40;20397;-60
2023/10/24 01:45:42;0.00;0.00;0.62;0.00;0.00;0.62;1.90;1.20;;;24.50;28.90;;;;;;2257770;61;20559;-59
2023/10/24 01:48:26;0.00;0.00;0.62;0.00;0.00;0.62;2.00;1.40;;;24.50;28.90;;;;;;2259531;61;20687;-59
2023/10/24 01:51:11;0.00;0.00;0.62;0.00;0.00;0.62;2.50;1.63;;;24.50;29.00;;;;;;2261119;61;20460;-60
2023/10/24 01:53:55;0.00;0.00;0.62;0.00;0.00;0.62;2.30;1.73;;;24.40;28.90;;;;;;2260340;61;20489;-60
2023/10/24 01:56:42;0.00;0.00;0.62;0.00;0.00;0.62;1.80;1.10;;;24.40;28.90;;;;;;2259199;61;20366;-59
2023/10/24 01:59:27;0.00;0.00;0.62;0.00;0.00;0.62;1.83;1.43;;;24.40;28.90;;;;;;2253368;61;20743;-60
2023/10/24 02:02:11;0.00;0.00;0.62;0.00;0.00;0.62;1.90;1.30;;;24.40;28.90;;;;;;2253429;61;20421;-60
2023/10/24 02:04:56;0.00;0.00;0.62;0.00;0.00;0.62;2.33;1.37;;;24.40;28.90;;;;;;2250981;61;20366;-60
2023/10/24 02:07:40;0.00;0.00;0.62;0.00;0.00;0.62;2.43;1.50;;;24.40;28.90;;;;;;2253609;61;20361;-61
2023/10/24 02:10:25;0.00;0.00;0.62;0.00;0.00;0.62;1.87;1.13;;;24.40;28.90;;;;;;2256770;61;20366;-58
2023/10/24 02:13:11;0.00;0.00;0.62;0.00;0.00;0.62;2.33;1.60;;;24.40;28.90;;;;;;2256769;61;20390;-60
2023/10/24 02:15:56;0.00;0.00;0.62;0.00;0.00;0.62;1.83;1.40;;;24.40;28.90;;;;;;2253409;61;20444;-58
2023/10/24 02:18:40;0.00;0.00;0.62;0.00;0.00;0.62;1.60;1.20;;;24.40;28.90;;;;;;2253253;61;20373;-59
2023/10/24 02:21:25;0.00;0.00;0.62;0.00;0.00;0.62;2.00;1.60;;;24.40;28.90;;;;;;2256865;61;20421;-60
2023/10/24 02:24:09;0.00;0.00;0.62;0.00;0.00;0.62;2.27;1.60;;;24.40;28.90;;;;;;2256633;61;20558;-58
2023/10/24 02:26:57;0.00;0.00;0.62;0.00;0.00;0.62;2.10;1.43;;;24.40;28.90;;;;;;2256855;61;20933;-59
2023/10/24 02:29:43;0.00;0.00;0.62;0.00;0.00;0.62;2.03;1.60;;;24.40;28.90;;;;;;2256376;61;20366;-58
2023/10/24 02:32:28;0.00;0.00;0.62;0.00;0.00;0.62;1.77;1.30;;;24.40;28.90;;;;;;2256475;61;20397;-58
2023/10/24 02:35:14;0.00;0.00;0.62;0.00;0.00;0.62;1.90;1.40;;;24.30;28.90;;;;;;2253635;61;20386;-60
2023/10/24 02:37:58;0.00;0.00;0.62;0.00;0.00;0.62;1.90;1.40;;;24.40;28.90;;;;;;2253085;61;20849;-60
2023/10/24 02:40:52;0.00;0.00;0.62;0.00;0.00;0.62;2.10;1.33;;;24.40;28.90;;;;;;2256545;61;20492;-58
2023/10/24 02:43:36;0.00;0.00;0.62;0.00;0.00;0.62;1.80;1.10;;;24.30;28.90;;;;;;2256676;61;21418;-58
2023/10/24 02:46:22;0.00;0.00;0.62;0.00;0.00;0.62;1.90;1.30;;;24.40;28.90;;;;;;2256563;61;20357;-58
2023/10/24 02:49:07;0.00;0.00;0.62;0.00;0.00;0.62;2.10;1.10;;;24.40;29.00;;;;;;2256291;61;20494;-59
2023/10/24 02:51:52;0.00;0.00;0.62;0.00;0.00;0.62;1.60;1.00;;;24.30;28.90;;;;;;2253573;61;20366;-57
2023/10/24 02:54:36;0.00;0.00;0.62;0.00;0.00;0.62;1.77;1.20;;;24.40;28.90;;;;;;2253339;61;20370;-56
2023/10/24 02:57:22;0.00;0.00;0.62;0.00;0.00;0.62;1.70;1.30;;;24.30;28.90;;;;;;2253351;61;20389;-57
2023/10/24 03:00:09;0.00;0.00;0.62;0.00;0.00;0.62;1.83;1.20;;;24.30;28.90;;;;;;2253043;61;20369;-59
2023/10/24 03:02:56;0.00;0.00;0.62;0.00;0.00;0.62;1.70;1.13;;;24.40;29.00;;;;;;2256578;61;20475;-59
2023/10/24 03:05:40;0.00;0.00;0.62;0.00;0.00;0.62;1.93;1.40;;;24.30;28.90;;;;;;2252959;61;20971;-59
2023/10/24 03:08:25;0.00;0.00;0.62;0.00;0.00;0.62;1.93;1.07;;;24.30;28.90;;;;;;2252905;61;20374;-59
2023/10/24 03:11:10;0.00;0.00;0.62;0.00;0.00;0.62;1.63;1.10;;;24.30;28.90;;;;;;2250767;61;20456;-59
2023/10/24 03:13:55;0.00;0.00;0.62;0.00;0.00;0.62;1.60;1.20;;;24.30;28.90;;;;;;2252798;61;20397;-58
2023/10/24 03:16:41;0.00;0.00;0.62;0.00;0.00;0.62;1.87;1.10;;;24.30;28.90;;;;;;2256664;61;20421;-58
2023/10/24 03:19:27;0.00;0.00;0.62;0.00;0.00;0.62;1.73;1.07;;;24.30;28.90;;;;;;2252808;61;20394;-60
2023/10/24 03:22:11;0.00;0.00;0.62;0.00;0.00;0.62;1.73;1.10;;;24.30;28.90;;;;;;2253303;61;20898;-58
2023/10/24 03:24:56;0.00;0.00;0.62;0.00;0.00;0.62;1.73;1.20;;;24.30;28.90;;;;;;2256506;61;20366;-59
2023/10/24 03:27:41;0.00;0.00;0.62;0.00;0.00;0.62;2.07;1.00;;;24.30;28.90;;;;;;2256655;61;20369;-60
2023/10/24 03:30:25;0.00;0.00;0.62;0.00;0.00;0.62;1.50;1.07;;;24.30;28.90;;;;;;2256291;61;20392;-60
2023/10/24 03:33:10;0.00;0.00;0.62;0.00;0.00;0.62;1.67;1.10;;;24.30;28.90;;;;;;2256513;61;20398;-59
2023/10/24 03:35:57;0.00;0.00;0.62;0.00;0.00;0.62;1.77;1.20;;;24.30;28.90;;;;;;2256301;61;20412;-58
2023/10/24 03:38:41;0.00;0.00;0.62;0.00;0.00;0.62;1.60;1.27;;;24.30;28.90;;;;;;2256138;61;20424;-61
2023/10/24 03:41:26;0.00;0.00;0.62;0.00;0.00;0.62;1.50;1.00;;;24.30;28.90;;;;;;2256545;61;20950;-58
2023/10/24 03:44:10;0.00;0.00;0.62;0.00;0.00;0.62;1.70;1.20;;;24.30;29.00;;;;;;2256536;61;20489;-59
2023/10/24 03:46:55;0.00;0.00;0.62;0.00;0.00;0.62;1.70;1.10;;;24.30;29.40;;;;;;2256540;61;20425;-59
2023/10/24 03:49:39;0.00;0.00;0.62;0.00;0.00;0.62;1.50;0.93;;;24.30;28.90;;;;;;2256240;61;20376;-60
2023/10/24 03:52:25;0.00;0.00;0.62;0.00;0.00;0.62;1.63;1.10;;;24.30;28.90;;;;;;2277246;40;20436;-59
2023/10/24 03:55:12;0.00;0.00;0.62;0.00;0.00;0.62;1.90;1.20;;;24.30;28.90;;;;;;2261714;61;20600;-58
2023/10/24 03:57:59;0.00;0.00;0.62;0.00;0.00;0.62;1.60;1.00;;;24.30;28.90;;;;;;2260427;61;20369;-60
2023/10/24 04:00:44;0.00;0.00;0.62;0.00;0.00;0.62;1.60;1.20;;;24.30;29.00;;;;;;2260384;61;20386;-58
2023/10/24 04:03:28;0.00;0.00;0.62;0.00;0.00;0.62;1.80;1.00;;;24.30;28.90;;;;;;2260390;61;20470;-58
2023/10/24 04:06:13;0.00;0.00;0.62;0.00;0.00;0.62;1.67;1.10;;;24.30;29.00;;;;;;2260336;61;20571;-58
2023/10/24 04:09:00;0.00;0.00;0.62;0.00;0.00;0.62;1.60;1.13;;;24.20;28.90;;;;;;2260127;61;20365;-60
2023/10/24 04:11:46;0.00;0.00;0.62;0.00;0.00;0.62;1.80;1.20;;;24.30;29.00;;;;;;2260613;61;20396;-59
2023/10/24 04:14:31;0.00;0.00;0.62;0.00;0.00;0.62;1.60;1.00;;;24.30;29.00;;;;;;2260151;61;20813;-58
2023/10/24 04:17:16;0.00;0.00;0.62;0.00;0.00;0.62;1.77;1.10;;;24.20;28.90;;;;;;2260480;61;20365;-58
2023/10/24 04:20:00;0.00;0.00;0.62;0.00;0.00;0.62;1.67;1.00;;;24.30;29.00;;;;;;2260239;61;20838;-57
2023/10/24 04:23:14;0.00;0.00;0.62;0.00;0.00;0.62;1.70;1.10;;;24.20;28.90;;;;;;2282700;39;20861;-57
2023/10/24 04:25:59;0.00;0.00;0.62;0.00;0.00;0.62;1.70;1.20;;;24.20;28.90;;;;;;2265895;61;20403;-59
2023/10/24 04:28:45;0.00;0.00;0.62;0.00;0.00;0.62;1.87;1.20;;;24.20;28.90;;;;;;2264102;61;20814;-56
2023/10/24 04:31:29;0.00;0.00;0.62;0.00;0.00;0.62;2.17;1.10;;;24.20;28.90;;;;;;2261396;61;20395;-58
2023/10/24 04:34:14;0.00;0.00;0.62;0.00;0.00;0.62;1.47;1.00;;;24.20;28.90;;;;;;2264332;61;20959;-58
2023/10/24 04:36:59;0.00;0.00;0.62;0.00;0.00;0.62;1.60;1.00;;;24.20;28.90;;;;;;2264194;61;20435;-58
2023/10/24 04:39:43;0.00;0.00;0.62;0.00;0.00;0.62;1.70;1.03;;;24.20;28.90;;;;;;2264291;61;20505;-57
2023/10/24 04:42:28;0.00;0.00;0.62;0.00;0.00;0.62;2.00;1.30;;;24.20;28.90;;;;;;2261395;61;20379;-61
2023/10/24 04:45:14;0.00;0.00;0.62;0.00;0.00;0.62;1.50;1.00;;;24.20;28.90;;;;;;2264419;61;20400;-55
2023/10/24 04:47:59;0.00;0.00;0.62;0.00;0.00;0.62;2.67;1.40;;;24.20;28.90;;;;;;2264093;61;20997;-57
2023/10/24 04:50:44;0.00;0.00;0.62;0.00;0.00;0.62;2.03;1.30;;;24.20;29.00;;;;;;2264516;61;20399;-58
2023/10/24 04:53:29;0.00;0.00;0.62;0.00;0.00;0.62;2.00;1.30;;;24.20;28.90;;;;;;2264332;61;20388;-58
2023/10/24 04:56:13;0.00;0.00;0.62;0.00;0.00;0.62;2.10;1.23;;;24.20;28.90;;;;;;2264572;61;20372;-59
2023/10/24 04:58:58;0.00;0.00;0.62;0.00;0.00;0.62;1.90;1.20;;;24.20;28.90;;;;;;2264015;61;20427;-54
2023/10/24 05:01:44;0.00;0.00;0.62;0.00;0.00;0.62;2.10;1.37;;;24.20;28.90;;;;;;2261385;61;20414;-59
2023/10/24 05:04:28;0.00;0.00;0.62;0.00;0.00;0.62;1.77;1.40;;;24.20;28.90;;;;;;2264386;61;20445;-57
2023/10/24 05:07:13;0.00;0.00;0.62;0.00;0.00;0.62;1.90;1.20;;;24.20;28.90;;;;;;2264443;61;20360;-58
2023/10/24 05:09:58;0.00;0.00;0.62;0.00;0.00;0.62;1.60;1.20;;;24.20;28.90;;;;;;2264029;61;20782;-58
2023/10/24 05:12:42;0.00;0.00;0.62;0.00;0.00;0.62;2.30;1.30;;;24.20;29.00;;;;;;2264214;61;20854;-58
2023/10/24 05:15:27;0.00;0.00;0.62;0.00;0.00;0.62;2.00;1.33;;;24.20;29.00;;;;;;2264306;61;20415;-59
2023/10/24 05:18:13;0.00;0.00;0.62;0.00;0.00;0.62;2.20;1.47;;;24.20;28.90;;;;;;2264015;61;20763;-58
2023/10/24 05:20:58;0.00;0.00;0.62;0.00;0.00;0.62;1.77;1.30;;;24.20;28.90;;;;;;2264296;61;20388;-56
2023/10/24 05:23:42;0.00;0.00;0.62;0.00;0.00;0.62;1.83;1.20;;;24.20;28.90;;;;;;2264222;61;20386;-59
2023/10/24 05:26:27;0.00;0.00;0.62;0.00;0.00;0.62;1.90;1.20;;;24.20;29.00;;;;;;2264439;61;20891;-55
2023/10/24 05:29:11;0.00;0.00;0.62;0.00;0.00;0.62;1.80;1.23;;;24.20;29.00;;;;;;2260992;61;20846;-58
2023/10/24 05:31:56;0.00;0.00;0.62;0.00;0.00;0.62;1.80;1.10;;;24.20;29.00;;;;;;2264982;61;20368;-60
2023/10/24 05:34:42;0.00;0.00;0.62;0.00;0.00;0.62;2.00;1.47;;;24.20;29.00;;;;;;2265029;61;20355;-57
2023/10/24 05:37:26;0.00;0.00;0.62;0.00;0.00;0.62;1.63;1.10;;;24.20;29.00;;;;;;2261568;61;20368;-60
2023/10/24 05:40:11;0.00;0.00;0.62;0.00;0.00;0.62;1.70;1.20;;;24.20;29.00;;;;;;2264838;61;20388;-58
2023/10/24 05:42:56;0.00;0.00;0.62;0.00;0.00;0.62;1.93;1.13;;;24.20;29.00;;;;;;2264802;61;20518;-58
2023/10/24 05:45:41;0.00;0.00;0.62;0.00;0.00;0.62;1.97;1.17;;;24.20;29.50;;;;;;2265191;61;20829;-55
2023/10/24 05:48:25;0.00;0.00;0.62;0.00;0.00;0.62;1.60;1.00;;;24.10;28.90;;;;;;2264391;61;20360;-58
2023/10/24 05:51:24;0.00;0.00;0.62;0.00;0.00;0.62;2.00;1.30;;;24.20;29.00;;;;;;2261652;61;20444;-58
2023/10/24 05:54:09;0.00;0.00;0.62;0.00;0.00;0.62;2.47;1.40;;;24.20;29.00;;;;;;2405335;40;20452;-60
2023/10/24 05:56:53;0.00;0.00;0.62;0.00;0.00;0.62;1.80;1.30;;;24.20;29.00;;;;;;2269099;61;20775;-60
2023/10/24 05:59:38;0.00;0.00;0.62;0.00;0.00;0.62;2.53;1.80;;;24.20;29.00;;;;;;2268494;61;20363;-60
2023/10/24 06:02:22;0.00;0.00;0.62;0.00;0.00;0.62;1.87;1.33;;;24.20;29.00;;;;;;2268895;61;20386;-57
2023/10/24 06:05:08;0.00;0.00;0.62;0.00;0.00;0.62;2.13;1.50;;;24.20;29.00;;;;;;2268735;61;20362;-61
2023/10/24 06:07:54;0.00;0.00;0.62;0.00;0.00;0.62;3.20;1.93;;;24.10;28.90;;;;;;2268152;61;20363;-61
2023/10/24 06:10:38;0.00;0.00;0.62;0.00;0.00;0.62;2.80;1.90;;;24.10;28.90;;;;;;2268557;61;20774;-55
2023/10/24 06:13:23;0.00;0.00;0.62;0.00;0.00;0.62;2.40;2.07;;;24.10;29.00;;;;;;2268754;61;20425;-59
2023/10/24 06:16:09;0.00;0.00;0.62;0.00;0.00;0.62;3.60;2.60;;;24.20;29.00;;;;;;2268983;61;20363;-61
2023/10/24 06:18:54;0.00;0.00;0.62;0.00;0.00;0.62;3.37;2.40;;;24.10;28.90;;;;;;2268748;61;20371;-61
2023/10/24 06:21:38;0.00;0.00;0.62;0.00;0.00;0.62;3.13;2.17;;;24.10;28.90;;;;;;2268643;61;20409;-60
2023/10/24 06:24:25;0.00;0.00;0.62;0.00;0.00;0.62;3.03;2.37;;;24.10;29.00;;;;;;2268886;61;20418;-59
2023/10/24 06:27:10;0.00;0.00;0.62;0.00;0.00;0.62;3.37;2.67;;;24.10;29.00;;;;;;2268710;61;20436;-61
2023/10/24 06:29:55;0.00;0.00;0.62;0.00;0.00;0.62;3.90;2.77;;;24.10;29.00;;;;;;2268627;61;20424;-60
2023/10/24 06:32:40;0.00;0.00;0.62;0.00;0.00;0.62;4.43;3.40;;;24.10;29.00;;;;;;2268785;61;20448;-59
2023/10/24 06:35:25;0.00;0.00;0.62;0.00;0.00;0.62;3.47;3.17;;;24.20;29.00;;;;;;2268667;61;20394;-60
2023/10/24 06:38:09;0.00;0.00;0.62;0.00;0.00;0.62;4.07;3.43;;;24.10;29.00;;;;;;2268008;61;20359;-60
2023/10/24 06:40:55;0.00;0.00;0.62;0.00;0.00;0.62;4.00;3.30;;;24.10;29.00;;;;;;2268494;61;20980;-61
2023/10/24 06:43:40;0.00;0.00;0.62;0.00;0.00;0.62;5.30;3.80;;;24.10;29.00;;;;;;2268528;61;20416;-61
2023/10/24 06:46:25;0.00;0.00;0.62;0.00;0.00;0.62;5.20;3.90;;;24.10;29.00;;;;;;2268881;61;20374;-60
2023/10/24 06:49:09;0.00;0.00;0.62;0.00;0.00;0.62;4.43;3.90;;;24.10;29.00;;;;;;2268567;61;20901;-60
2023/10/24 06:51:54;0.00;0.00;0.62;0.00;0.00;0.62;5.00;4.13;;;24.10;29.00;;;;;;2268819;61;20367;-59
2023/10/24 06:54:38;0.00;0.00;0.62;0.00;0.00;0.62;6.63;5.00;;;24.10;29.00;;;;;;2268612;61;20857;-59
2023/10/24 06:57:24;0.00;0.00;0.62;0.00;0.00;0.62;6.80;5.17;;;24.10;29.00;;;;;;2268654;61;20509;-58
2023/10/24 07:00:11;0.00;0.00;0.62;0.00;0.00;0.62;5.47;4.40;;;24.10;29.00;;;;;;2268354;61;20409;-57
2023/10/24 07:02:56;0.00;0.00;0.62;0.00;0.00;0.62;7.10;5.50;;;24.10;29.00;;;;;;2268758;61;20923;-61
2023/10/24 07:05:41;0.00;0.00;0.62;0.00;0.00;0.62;6.50;5.30;;;24.10;29.00;;;;;;2268437;61;20772;-59
2023/10/24 07:08:25;0.00;0.00;0.62;0.00;0.00;0.62;5.03;4.23;;;24.10;29.00;;;;;;2268501;61;20871;-60
2023/10/24 07:11:10;0.00;0.00;0.62;0.00;0.00;0.62;6.47;5.17;;;24.10;29.00;;;;;;2269053;61;20366;-60
2023/10/24 07:13:56;0.00;0.00;0.62;0.00;0.00;0.62;7.20;5.97;;;24.10;29.00;;;;;;2268624;61;20395;-60
2023/10/24 07:16:40;0.00;0.00;0.62;0.00;0.00;0.62;7.90;6.13;;;24.10;29.00;;;;;;2268517;61;20926;-61
2023/10/24 07:19:25;0.00;0.00;0.62;0.00;0.00;0.62;6.47;5.53;;;24.10;29.10;;;;;;2268327;61;20925;-61
2023/10/24 07:22:09;0.00;0.00;0.62;0.00;0.00;0.62;6.67;5.43;;;24.10;29.00;;;;;;2268725;61;20883;-60
2023/10/24 07:24:54;0.00;0.00;0.62;0.00;0.00;0.62;7.17;5.67;;;24.10;29.10;;;;;;2268784;61;20405;-60
2023/10/24 07:27:38;0.00;0.00;0.62;0.00;0.00;0.62;6.40;5.57;;;24.10;29.00;;;;;;2268513;61;20363;-58
2023/10/24 07:30:24;0.00;0.00;0.62;0.00;0.00;0.62;5.90;4.70;;;24.10;29.00;;;;;;2268807;61;20451;-60
2023/10/24 07:33:09;0.00;0.00;0.62;0.00;0.00;0.62;7.43;5.00;;;24.10;29.10;;;;;;2268562;61;20434;-57
2023/10/24 07:35:54;0.00;0.00;0.62;0.00;0.00;0.62;6.33;5.30;;;24.10;29.00;;;;;;2268827;61;20407;-59
2023/10/24 07:38:39;0.00;0.00;0.62;0.00;0.00;0.62;6.30;5.20;;;24.10;29.10;;;;;;2268324;61;20367;-59
2023/10/24 07:41:23;0.00;0.00;0.62;0.00;0.00;0.62;7.10;5.70;;;24.10;29.10;;;;;;2268479;61;20911;-60
2023/10/24 07:44:08;0.00;0.00;0.62;0.00;0.00;0.62;7.37;5.70;;;24.10;29.10;;;;;;2268708;61;20870;-60
2023/10/24 07:46:54;0.00;0.00;0.62;0.00;0.00;0.62;6.50;5.60;;;24.10;29.10;;;;;;2268266;61;20424;-59
2023/10/24 07:49:38;0.00;0.00;0.62;0.00;0.00;0.62;6.73;5.20;;;24.10;29.10;;;;;;2267944;61;20364;-60
2023/10/24 07:52:23;0.00;0.00;0.62;0.00;0.00;0.62;6.10;5.47;;;24.10;29.10;;;;;;2268282;61;20363;-59
2023/10/24 07:55:08;0.00;0.00;0.62;0.00;0.00;0.62;5.93;5.30;;;24.10;29.10;;;;;;2268613;61;20362;-60
2023/10/24 07:57:54;0.00;0.00;0.62;0.00;0.00;0.62;6.23;4.90;;;24.10;29.10;;;;;;2268228;61;21304;-61
2023/10/24 08:00:38;0.00;0.00;0.62;0.00;0.00;0.62;7.50;5.97;;;24.10;29.10;;;;;;2268579;61;20429;-59
2023/10/24 08:03:24;0.00;0.00;0.62;0.00;0.00;0.62;7.50;6.13;;;24.10;29.10;;;;;;2414512;39;20458;-60
2023/10/24 08:06:09;0.00;0.00;0.62;0.00;0.00;0.62;6.97;5.33;;;24.10;29.20;;;;;;2260534;61;20372;-61
2023/10/24 08:08:53;0.00;0.00;0.62;0.00;0.00;0.62;5.83;5.20;;;24.10;29.10;;;;;;2260297;61;20392;-60
2023/10/24 08:11:38;0.00;0.00;0.62;0.00;0.00;0.62;6.20;5.53;;;24.10;29.10;;;;;;2260397;61;20439;-60
2023/10/24 08:14:26;0.00;0.00;0.62;0.00;0.00;0.62;7.80;5.93;;;24.10;29.20;;;;;;2256472;61;20809;-60
2023/10/24 08:17:11;0.00;0.00;0.62;0.00;0.00;0.62;7.63;5.67;;;24.10;29.20;;;;;;2256388;61;20386;-59
2023/10/24 08:19:56;0.00;0.00;0.62;0.00;0.00;0.62;6.30;4.93;;;24.10;29.20;;;;;;2256026;61;20362;-60
2023/10/24 08:22:41;0.00;0.00;0.62;0.00;0.00;0.62;5.90;4.73;;;24.10;29.20;;;;;;2256483;61;20432;-61
2023/10/24 08:25:25;0.00;0.00;0.62;0.00;0.00;0.62;5.50;4.70;;;24.10;29.20;;;;;;2256439;61;20370;-59
2023/10/24 08:28:10;0.00;0.00;0.62;0.00;0.00;0.62;7.10;5.87;;;24.10;29.20;;;;;;2256030;61;20424;-59
2023/10/24 08:30:55;0.00;0.00;0.62;0.00;0.00;0.62;6.03;4.67;;;24.10;29.20;;;;;;2256426;61;20442;-61
2023/10/24 08:33:39;0.00;0.00;0.62;0.00;0.00;0.62;6.30;5.33;;;24.10;29.20;;;;;;2256123;61;20393;-59
2023/10/24 08:36:25;0.00;0.00;0.62;0.00;0.00;0.62;5.63;4.97;;;24.10;29.20;;;;;;2253198;61;20512;-57
2023/10/24 08:39:10;0.00;0.00;0.62;0.00;0.00;0.62;5.93;5.20;;;24.10;29.20;;;;;;2255862;61;20907;-60
2023/10/24 08:41:57;0.00;0.00;0.62;0.00;0.00;0.62;6.23;5.00;;;24.10;29.20;;;;;;2256220;61;20366;-60
2023/10/24 08:44:42;0.00;0.00;0.62;0.00;0.00;0.62;6.83;5.27;;;24.10;29.30;;;;;;2256441;61;20385;-60
2023/10/24 08:47:28;0.00;0.00;0.62;0.00;0.00;0.62;6.03;5.03;;;24.10;29.20;;;;;;2256235;61;20408;-59
2023/10/24 08:50:12;0.00;0.00;0.62;0.00;0.00;0.62;6.70;4.70;;;24.10;29.20;;;;;;2256069;61;20902;-59
2023/10/24 08:52:58;0.00;0.00;0.62;0.00;0.00;0.62;6.13;4.90;;;24.10;29.20;;;;;;2256196;61;20405;-59
2023/10/24 08:55:49;0.00;0.00;0.62;0.00;0.00;0.62;5.67;4.20;;;24.00;29.20;;;;;;2256029;61;20373;-59
2023/10/24 08:58:38;0.00;0.00;0.62;0.00;0.00;0.62;5.00;4.00;;;24.10;29.20;;;;;;2256021;61;20373;-57
2023/10/24 09:01:25;0.00;0.00;0.62;0.00;0.00;0.62;4.73;4.10;;;24.10;29.30;;;;;;2256397;61;20374;-57
2023/10/24 09:04:10;0.00;0.00;0.62;0.00;0.00;0.62;5.60;4.30;;;24.10;29.30;;;;;;2256650;61;20388;-61
2023/10/24 09:06:55;0.00;0.00;0.62;0.00;0.00;0.62;5.27;4.20;;;24.00;29.20;;;;;;2257104;61;20950;-59
2023/10/24 09:09:41;0.00;0.00;0.62;0.00;0.00;0.62;5.23;4.17;;;24.00;29.20;;;;;;2256852;61;21087;-58
2023/10/24 09:12:29;0.00;0.00;0.62;0.00;0.00;0.62;4.40;3.67;;;24.00;29.20;;;;;;2256954;61;20374;-60
2023/10/24 09:15:14;0.00;0.00;0.62;0.00;0.00;0.62;4.77;4.33;;;24.00;29.20;;;;;;2257030;61;20945;-59
2023/10/24 09:18:02;0.00;0.00;0.62;0.00;0.00;0.62;6.30;4.43;;;24.00;29.20;;;;;;2256501;61;20405;-59
2023/10/24 09:20:46;0.00;0.00;0.62;0.00;0.00;0.62;5.63;4.43;;;24.00;29.20;;;;;;2256902;61;20365;-60
2023/10/24 09:26:50;0.00;0.00;0.62;0.00;0.00;0.62;5.50;4.60;;;24.10;29.30;;;;;;2266360;61;20418;-58
2023/10/24 09:29:34;0.00;0.00;0.62;0.00;0.00;0.62;5.13;4.63;;;24.00;29.30;;;;;;2264659;61;20372;-59
2023/10/24 09:32:20;0.00;0.00;0.62;0.00;0.00;0.62;4.23;3.73;;;24.00;29.20;;;;;;2264810;61;20363;-66
2023/10/24 09:35:06;0.00;0.00;0.62;0.00;0.00;0.62;5.67;5.07;;;24.00;29.30;;;;;;2264959;61;20363;-60
2023/10/24 09:37:50;0.00;0.00;0.62;0.00;0.00;0.62;5.77;4.80;;;24.00;29.30;;;;;;2264833;61;20864;-60
2023/10/24 09:40:36;0.00;0.00;0.62;0.00;0.00;0.62;7.30;5.20;;;24.00;29.30;;;;;;2264911;61;20813;-59
2023/10/24 09:43:23;0.00;0.00;0.62;0.00;0.00;0.62;5.33;3.90;;;24.00;29.30;;;;;;2265192;61;20950;-59
2023/10/24 09:46:09;0.00;0.00;0.62;0.00;0.00;0.62;4.77;4.20;;;24.10;29.30;;;;;;2265087;61;20460;-61
2023/10/24 09:48:55;0.00;0.00;0.62;0.00;0.00;0.62;5.00;4.27;;;24.00;29.30;;;;;;2264491;61;20423;-60
2023/10/24 09:51:41;0.00;0.00;0.62;0.00;0.00;0.62;5.67;4.33;;;24.00;29.30;;;;;;2261749;61;20399;-58
2023/10/24 09:54:25;0.00;0.00;0.62;0.00;0.00;0.62;5.30;4.53;;;24.00;29.30;;;;;;2264760;61;20391;-58
2023/10/24 09:57:11;0.00;0.00;0.62;0.00;0.00;0.62;5.40;4.20;;;24.10;29.40;;;;;;2264972;61;20360;-59
2023/10/24 09:59:59;0.00;0.00;0.62;0.00;0.00;0.62;4.30;3.87;;;24.00;29.30;;;;;;2264739;61;20780;-58
2023/10/24 10:02:46;0.00;0.00;0.62;0.00;0.00;0.62;4.03;3.43;;;24.10;29.40;;;;;;2264483;61;20418;-56
2023/10/24 10:05:32;0.00;0.00;0.62;0.00;0.00;0.62;4.27;3.47;;;24.10;29.40;;;;;;2264870;61;20368;-60
2023/10/24 10:08:19;0.00;0.00;0.62;0.00;0.00;0.62;5.80;4.93;;;24.10;29.40;;;;;;2264532;61;20372;-60
2023/10/24 10:11:05;0.00;0.00;0.62;0.00;0.00;0.62;4.40;3.80;;;24.10;29.40;;;;;;2264767;61;20395;-61
2023/10/24 10:13:53;0.00;0.00;0.62;0.00;0.00;0.62;4.63;4.03;;;24.10;29.40;;;;;;2264632;61;20399;-58
2023/10/24 10:16:58;0.00;0.00;0.62;0.00;0.00;0.62;4.00;3.43;;;24.10;29.40;;;;;;2264664;61;20380;-59
2023/10/24 10:20:05;0.00;0.00;0.62;0.00;0.00;0.62;5.10;4.37;;;24.10;29.40;;;;;;2264621;61;20387;-59
2023/10/24 10:23:11;0.00;0.00;0.62;0.00;0.00;0.62;4.30;3.87;;;24.00;29.40;;;;;;2264772;61;20384;-61
2023/10/24 10:26:04;0.00;0.00;0.62;0.00;0.00;0.62;5.20;4.23;;;24.10;29.40;;;;;;2264817;61;20417;-60
2023/10/24 10:29:07;0.00;0.00;0.62;0.00;0.00;0.62;5.73;4.33;;;24.00;29.30;;;;;;2264541;61;20414;-60
2023/10/24 10:32:10;0.00;0.00;0.62;0.00;0.00;0.62;4.23;3.60;;;24.10;29.50;;;;;;2264387;61;20363;-60
2023/10/24 10:34:55;0.00;0.00;0.62;0.00;0.00;0.62;5.40;4.27;;;24.00;29.40;;;;;;2264763;61;20419;-59
2023/10/24 10:37:39;0.00;0.00;0.62;0.00;0.00;0.62;4.57;4.10;;;24.10;29.40;;;;;;2264935;61;20368;-59
2023/10/24 10:40:26;0.00;0.00;0.62;0.00;0.00;0.62;4.60;3.83;;;24.10;29.50;;;;;;2264814;61;20363;-60
2023/10/24 10:43:30;0.00;0.00;0.62;0.00;0.00;0.62;5.60;4.33;;;24.10;29.40;;;;;;2261527;61;20384;-61
2023/10/24 10:46:19;0.00;0.00;0.62;0.00;0.00;0.62;4.93;4.20;;;24.10;29.50;;;;;;2264622;61;20356;-59
2023/10/24 10:49:07;0.00;0.00;0.62;0.00;0.00;0.62;4.50;4.10;;;24.10;29.40;;;;;;2264428;61;20417;-59
2023/10/24 10:51:53;0.00;0.00;0.62;0.00;0.00;0.62;4.90;4.03;;;24.10;29.50;;;;;;2264906;61;20372;-58
2023/10/24 10:54:48;0.00;0.00;0.62;0.00;0.00;0.62;4.57;3.97;;;24.10;29.50;;;;;;2261300;61;20392;-57
2023/10/24 10:57:47;0.00;0.00;0.62;0.00;0.00;0.62;4.77;4.00;;;24.10;29.50;;;;;;2264762;61;20376;-58